デリー の空港の天気 - METARとTAF

インディラ・ガンディー国際空港 ( VIDP / DEL ) - インド デリー
飛行場実況気象(Metar)
観測時間06/16 13:30 IST (06/16 08:00 UTC)
風向・風速西 3m/s
視程2200m
天気現象煙霧
全天の4割程度の雲 雲底高度 1070m
少しの雲 雲底高度 1220m
全天の8割程度の雲 雲底高度 3050m
気温30℃
湿度59%
気圧1002hPa
METARVIDP 160800Z 28006KT 2200 HZ SCT035 FEW040CB BKN100 30/21 Q1002 NOSIG
過去の天気等 Google飛行場航空写真 Wunderground天気予報

過去48時間のMETAR

飛行場予報(TAF)
発表時間: 6/16 10:30 IST (6/16 05:00 UTC)
予報対象時間: 16日11時 IST ~ 17日17時 IST
風向・風速南西 5m/s 瞬間風速 10m/s
視程2500m
天気現象煙霧 弱い雨
全天の4割程度の雲 雲底高度 1070m
少しの積乱雲 雲底高度 1220m
全天の8割程度の雲 雲底高度 2440m
16日15時 IST ~ 16日17時 IST に徐々に
風向・風速西 4m/s 瞬間風速 9m/s
視程3000m
天気現象煙霧
全天の4割程度の雲 雲底高度 1070m
全天の8割程度の雲 雲底高度 2440m
17日5時 IST ~ 17日7時 IST に徐々に
風向・風速西 5m/s
視程3000m
天気現象煙霧
少しの雲 雲底高度 1070m
全天の4割程度の雲 雲底高度 3050m
17日13時 IST ~ 17日15時 IST に徐々に
風向・風速西北西 5m/s
視程3500m
天気現象煙霧
全天の4割程度の雲 雲底高度 910m
全天の4割程度の雲 雲底高度 3050m
TAF VIDP 160500Z 1606/1712 23010G20KT 2500 HZ -RA SCT035 FEW040CB BKN080
BECMG 1610/1612 27008G18KT 3000 HZ SCT035 BKN080
BECMG 1700/1702 27010KT 3000 HZ FEW035 SCT100
BECMG 1708/1710 29010KT 3500 HZ SCT030 SCT100